Rimini, South Carolina
Current Conditions -  °F | °C
As of 2:58 AM on Thursday 23 Oct 2014 (Local Time) from KSSC Reporting Station
Clear Clear  
Wind Chill: 45°   Ceiling: Unl
Heat Index: 47°   Visibility: 10mi
Dew Point: 42°   Wind: 6mph
Humidity: 83%   Direction: 290°WNW
Pressure: 30.06"   Gusts: NA
Location:  33.7445°N, 80.5249°W
Report Text: KSSC 230658Z AUTO 29005KT 10SM CLR 09/06 A3006 RMK AO2 SLP181 T00860058 $
Loading
Personal Weather Stations






























Interactive Weather Map
Tropical Storm Tracking
New forecast layout! Learn more

10-Day Weather Forecast

Advertisements
Track Severe Weather on mobile